Time;durP1;ratioP1;P1;durP2;ratioP2;P2;SDS_P1;SDS_P2;PMS_P1;PMS_P2;Temp;Humidity;BMP_temperature;BMP_pressure;BME280_temperature;BME280_humidity;BME280_pressure;Samples;Min_cycle;Max_cycle;Signal;HPM_P1;HPM_P2
2023/07/17 00:01:56;;;;;;;37.93;6.20;;;27.80;46.30;;;;;;5039900;28;20197;-70
2023/07/17 00:04:23;;;;;;;30.17;5.30;;;27.80;46.30;;;;;;5030105;28;20191;-69
2023/07/17 00:06:50;;;;;;;31.53;6.00;;;27.80;46.30;;;;;;5034419;28;20221;-69
2023/07/17 00:09:17;;;;;;;30.00;5.43;;;27.80;46.30;;;;;;5047168;28;20200;-69
2023/07/17 00:11:45;;;;;;;50.87;7.43;;;27.80;46.40;;;;;;5031529;28;20204;-73
2023/07/17 00:14:13;;;;;;;57.53;7.83;;;27.80;46.40;;;;;;5044738;28;20211;-80
2023/07/17 00:16:40;;;;;;;54.80;7.53;;;27.80;46.40;;;;;;5031416;28;20948;-70
2023/07/17 00:19:06;;;;;;;30.27;5.67;;;27.80;46.40;;;;;;5043094;28;20204;-70
2023/07/17 00:21:33;;;;;;;27.97;5.40;;;27.80;46.40;;;;;;5047240;28;20204;-73
2023/07/17 00:24:00;;;;;;;30.50;5.63;;;27.80;46.40;;;;;;5047973;28;20223;-77
2023/07/17 00:26:29;;;;;;;33.43;5.87;;;27.80;46.40;;;;;;5040872;28;20226;-70
2023/07/17 00:29:21;;;;;;;52.60;7.60;;;27.80;46.40;;;;;;5039311;28;20968;-71
2023/07/17 00:31:48;;;;;;;34.80;6.13;;;27.80;46.50;;;;;;5043432;28;20274;-69
2023/07/17 00:34:15;;;;;;;29.40;5.90;;;27.80;46.40;;;;;;5048092;28;20581;-77
2023/07/17 00:36:42;;;;;;;47.23;7.27;;;27.70;46.40;;;;;;5033502;28;20217;-70
2023/07/17 00:39:10;;;;;;;26.57;5.23;;;27.70;46.40;;;;;;5043189;28;20673;-70
2023/07/17 00:41:37;;;;;;;24.23;5.30;;;27.70;46.40;;;;;;5045199;28;20905;-70
2023/07/17 00:44:05;;;;;;;28.57;5.17;;;27.70;46.40;;;;;;5042632;28;20198;-75
2023/07/17 00:46:34;;;;;;;27.47;5.20;;;27.70;46.50;;;;;;5038920;28;20263;-71
2023/07/17 00:49:02;;;;;;;23.97;5.03;;;27.70;46.40;;;;;;5044735;28;20207;-70
2023/07/17 00:51:29;;;;;;;25.03;5.27;;;27.70;46.40;;;;;;5036724;28;20683;-72
2023/07/17 00:53:56;;;;;;;28.07;5.27;;;27.70;46.50;;;;;;5048601;28;20683;-72
2023/07/17 00:56:24;;;;;;;43.07;6.77;;;27.70;46.40;;;;;;5039378;28;20207;-71
2023/07/17 00:58:51;;;;;;;32.10;6.00;;;27.70;46.40;;;;;;5044090;28;20204;-70
2023/07/17 01:01:19;;;;;;;44.80;7.10;;;27.70;46.50;;;;;;5028283;28;20212;-70
2023/07/17 01:03:46;;;;;;;40.73;6.53;;;27.70;46.50;;;;;;5044181;28;20204;-70
2023/07/17 01:06:13;;;;;;;23.77;4.93;;;27.70;46.50;;;;;;5047406;28;20244;-70
2023/07/17 01:08:40;;;;;;;29.23;5.50;;;27.70;46.60;;;;;;5045729;28;20205;-70
2023/07/17 01:11:08;;;;;;;44.10;6.73;;;27.70;46.60;;;;;;5043862;28;20289;-74
2023/07/17 01:13:44;;;;;;;30.03;5.50;;;27.70;46.60;;;;;;5046492;28;20231;-70
2023/07/17 01:16:11;;;;;;;26.83;5.27;;;27.70;46.60;;;;;;5031222;28;20208;-74
2023/07/17 01:18:39;;;;;;;33.20;5.97;;;27.70;46.60;;;;;;5028126;28;20233;-73
2023/07/17 01:21:08;;;;;;;22.50;4.83;;;27.70;46.60;;;;;;5027300;28;20207;-70
2023/07/17 01:23:37;;;;;;;26.20;5.17;;;27.70;46.60;;;;;;5035384;28;20200;-71
2023/07/17 01:26:11;;;;;;;33.40;5.90;;;27.70;46.70;;;;;;5043223;28;20235;-71
2023/07/17 01:28:38;;;;;;;37.97;6.37;;;27.60;46.60;;;;;;5038290;28;20200;-70
2023/07/17 01:31:05;;;;;;;22.63;5.13;;;27.60;46.60;;;;;;5035253;28;20199;-70
2023/07/17 01:33:32;;;;;;;35.40;6.13;;;27.60;46.60;;;;;;5037024;28;20613;-70
2023/07/17 01:35:59;;;;;;;43.70;6.93;;;27.60;46.60;;;;;;5043118;28;20574;-70
2023/07/17 01:38:26;;;;;;;40.33;6.77;;;27.60;46.60;;;;;;5031216;28;20212;-73
2023/07/17 01:40:54;;;;;;;28.50;5.63;;;27.60;46.60;;;;;;5033263;28;20197;-75
2023/07/17 01:43:21;;;;;;;26.47;5.43;;;27.60;46.60;;;;;;5051981;28;20208;-72
2023/07/17 01:45:48;;;;;;;24.73;5.17;;;27.60;46.60;;;;;;5067309;28;20723;-73
2023/07/17 01:48:17;;;;;;;27.10;5.53;;;27.60;46.60;;;;;;5031520;28;20215;-70
2023/07/17 01:50:44;;;;;;;30.67;5.60;;;27.50;46.70;;;;;;5033417;28;20770;-72
2023/07/17 01:53:11;;;;;;;21.40;4.87;;;27.50;46.60;;;;;;5047964;28;20224;-70
2023/07/17 01:55:38;;;;;;;19.47;4.90;;;27.50;46.70;;;;;;5047417;28;20218;-70
2023/07/17 01:58:06;;;;;;;32.23;5.93;;;27.50;46.70;;;;;;5046638;28;20204;-72
2023/07/17 02:00:34;;;;;;;26.63;5.30;;;27.50;46.70;;;;;;5027740;28;20201;-70
2023/07/17 02:03:01;;;;;;;29.50;5.57;;;27.50;46.70;;;;;;5028019;28;20200;-70
2023/07/17 02:05:28;;;;;;;25.67;5.37;;;27.50;46.70;;;;;;5027938;28;20212;-77
2023/07/17 02:07:55;;;;;;;28.43;5.37;;;27.50;46.70;;;;;;5028075;28;20200;-75
2023/07/17 02:10:22;;;;;;;55.23;7.60;;;27.50;46.70;;;;;;5029276;28;21005;-71
2023/07/17 02:12:49;;;;;;;43.13;6.93;;;27.50;46.70;;;;;;5041782;28;20208;-71
2023/07/17 02:15:17;;;;;;;28.17;5.43;;;27.50;46.70;;;;;;5041575;28;20201;-73
2023/07/17 02:17:44;;;;;;;33.30;6.27;;;27.50;46.70;;;;;;5029834;28;20208;-71
2023/07/17 02:20:13;;;;;;;23.27;5.47;;;27.40;46.60;;;;;;5047245;28;20208;-71
2023/07/17 02:22:40;;;;;;;32.70;6.17;;;27.40;46.70;;;;;;5031653;28;20243;-76
2023/07/17 02:25:08;;;;;;;34.23;6.50;;;27.40;46.70;;;;;;5041163;28;20205;-72
2023/07/17 02:27:35;;;;;;;48.03;7.17;;;27.40;46.70;;;;;;5026294;28;20228;-72
2023/07/17 02:30:02;;;;;;;23.90;5.20;;;27.40;46.70;;;;;;5034037;28;21007;-73
2023/07/17 02:32:31;;;;;;;40.27;6.83;;;27.40;46.70;;;;;;5047943;28;22127;-71
2023/07/17 02:34:58;;;;;;;25.77;5.73;;;27.40;46.80;;;;;;5046965;28;20223;-72
2023/07/17 02:37:25;;;;;;;25.90;5.57;;;27.40;46.80;;;;;;5048304;28;20696;-70
2023/07/17 02:39:52;;;;;;;26.63;5.73;;;27.40;46.80;;;;;;5040598;28;20201;-72
2023/07/17 02:42:19;;;;;;;40.30;6.97;;;27.40;46.80;;;;;;5047216;28;20207;-72
2023/07/17 02:44:46;;;;;;;26.67;5.80;;;27.30;46.70;;;;;;5048976;28;20223;-70
2023/07/17 02:47:14;;;;;;;30.47;6.03;;;27.40;46.80;;;;;;5036383;28;20262;-71
2023/07/17 02:49:43;;;;;;;40.07;6.80;;;27.30;46.80;;;;;;5041375;28;20200;-70
2023/07/17 02:52:10;;;;;;;26.70;5.63;;;27.40;46.80;;;;;;5034763;28;20220;-72
2023/07/17 02:54:37;;;;;;;38.20;6.57;;;27.30;46.80;;;;;;5046804;28;20649;-71
2023/07/17 02:57:05;;;;;;;45.87;7.70;;;27.30;46.80;;;;;;5044626;28;20196;-75
2023/07/17 02:59:32;;;;;;;42.60;7.17;;;27.30;46.80;;;;;;5040655;28;20208;-75
2023/07/17 03:01:59;;;;;;;22.17;6.00;;;27.30;46.80;;;;;;5044300;28;20211;-72
2023/07/17 03:04:25;;;;;;;28.23;5.87;;;27.40;46.90;;;;;;5044239;28;20211;-76
2023/07/17 03:06:54;;;;;;;39.57;7.23;;;27.30;46.80;;;;;;5046801;28;20224;-76
2023/07/17 03:09:21;;;;;;;33.30;6.60;;;27.30;46.90;;;;;;5040245;28;20193;-73
2023/07/17 03:11:48;;;;;;;43.27;7.97;;;27.30;46.90;;;;;;5040193;28;20243;-74
2023/07/17 03:14:15;;;;;;;37.03;6.67;;;27.30;46.90;;;;;;5047091;28;20206;-70
2023/07/17 03:16:42;;;;;;;39.67;7.33;;;27.30;46.90;;;;;;5046740;28;20208;-71
2023/07/17 03:19:10;;;;;;;25.60;5.97;;;27.20;46.80;;;;;;5048066;28;20301;-71
2023/07/17 03:21:37;;;;;;;41.20;7.07;;;27.20;46.90;;;;;;5047522;28;20287;-79
2023/07/17 03:24:06;;;;;;;28.20;6.33;;;27.20;46.90;;;;;;5036606;28;20201;-71
2023/07/17 03:26:33;;;;;;;63.47;9.37;;;27.20;46.90;;;;;;5043852;28;20223;-70
2023/07/17 03:29:00;;;;;;;60.03;9.47;;;27.20;46.90;;;;;;5028702;28;20197;-71
2023/07/17 03:31:26;;;;;;;36.03;7.53;;;27.20;46.90;;;;;;5042292;28;20204;-70
2023/07/17 03:33:53;;;;;;;35.83;7.23;;;27.20;46.90;;;;;;5045814;28;20736;-70
2023/07/17 03:36:20;;;;;;;27.60;6.20;;;27.20;47.00;;;;;;5033328;28;20205;-72
2023/07/17 03:38:47;;;;;;;32.60;6.87;;;27.20;46.90;;;;;;5043938;28;20656;-71
2023/07/17 03:41:17;;;;;;;27.00;6.53;;;27.20;46.90;;;;;;5041932;28;20208;-71
2023/07/17 03:43:44;;;;;;;26.40;6.03;;;27.20;47.60;;;;;;5037851;28;20616;-75
2023/07/17 03:46:11;;;;;;;29.30;6.33;;;27.20;46.90;;;;;;5049123;28;20232;-71
2023/07/17 03:48:38;;;;;;;31.20;6.67;;;27.20;47.00;;;;;;5039328;28;20202;-73
2023/07/17 03:51:05;;;;;;;18.87;5.90;;;27.20;47.00;;;;;;5049617;28;20199;-72
2023/07/17 03:53:32;;;;;;;29.30;6.60;;;27.10;47.00;;;;;;5049473;28;20235;-70
2023/07/17 03:55:59;;;;;;;29.47;6.60;;;27.10;47.00;;;;;;5047502;28;20207;-71
2023/07/17 03:58:27;;;;;;;33.47;7.00;;;27.10;47.00;;;;;;5047506;28;20214;-75
2023/07/17 04:00:54;;;;;;;23.90;6.40;;;27.10;47.00;;;;;;5068816;28;20225;-71
2023/07/17 04:03:21;;;;;;;24.43;6.10;;;27.10;47.00;;;;;;5059420;28;20204;-70
2023/07/17 04:05:48;;;;;;;25.47;6.00;;;27.10;47.00;;;;;;5049106;28;20614;-71
2023/07/17 04:08:15;;;;;;;27.53;6.80;;;27.10;47.60;;;;;;5040137;28;20697;-71
2023/07/17 04:10:42;;;;;;;33.23;6.47;;;27.10;47.00;;;;;;5045880;28;20887;-70
2023/07/17 04:13:09;;;;;;;32.70;6.97;;;27.10;47.00;;;;;;5036918;28;20657;-70
2023/07/17 04:15:37;;;;;;;51.07;8.90;;;27.10;47.00;;;;;;5043331;28;20566;-71
2023/07/17 04:18:04;;;;;;;31.73;6.73;;;27.10;47.00;;;;;;5042608;28;20581;-73
2023/07/17 04:20:32;;;;;;;46.57;8.07;;;27.10;47.10;;;;;;5029120;28;20208;-71
2023/07/17 04:22:59;;;;;;;35.20;7.30;;;27.10;47.10;;;;;;5032613;28;20247;-71
2023/07/17 04:25:26;;;;;;;23.50;5.80;;;27.10;47.10;;;;;;5048231;28;20208;-70
2023/07/17 04:27:52;;;;;;;31.93;7.23;;;27.10;47.10;;;;;;5042806;28;20212;-73
2023/07/17 04:30:19;;;;;;;24.97;6.30;;;27.10;47.10;;;;;;5044606;28;20211;-70
2023/07/17 04:32:48;;;;;;;28.47;6.40;;;27.10;47.10;;;;;;5030446;28;20201;-71
2023/07/17 04:35:15;;;;;;;25.17;6.53;;;27.10;47.10;;;;;;5036295;28;20655;-72
2023/07/17 04:37:42;;;;;;;44.77;7.93;;;27.10;47.20;;;;;;5030793;28;21031;-71
2023/07/17 04:40:10;;;;;;;43.10;8.17;;;27.10;47.20;;;;;;5031538;28;20200;-73
2023/07/17 04:42:36;;;;;;;31.57;6.70;;;27.10;47.20;;;;;;5041593;28;20211;-70
2023/07/17 04:45:05;;;;;;;21.83;5.97;;;27.00;47.10;;;;;;5033751;28;20682;-71
2023/07/17 04:47:32;;;;;;;31.80;7.13;;;27.00;47.10;;;;;;5040615;28;20457;-69
2023/07/17 04:50:00;;;;;;;46.17;8.10;;;26.90;47.50;;;;;;5039412;28;20215;-69
2023/07/17 04:52:27;;;;;;;27.17;6.80;;;26.90;47.30;;;;;;5031175;28;20229;-69
2023/07/17 04:54:54;;;;;;;30.50;6.83;;;27.00;47.30;;;;;;5033729;28;20204;-70
2023/07/17 04:57:22;;;;;;;31.47;7.10;;;27.10;47.40;;;;;;5031752;28;20208;-69
2023/07/17 04:59:48;;;;;;;29.53;6.83;;;27.00;47.30;;;;;;5032056;28;20204;-71
2023/07/17 05:02:15;;;;;;;27.80;6.57;;;27.10;47.40;;;;;;5035781;28;20200;-73
2023/07/17 05:04:42;;;;;;;39.50;7.47;;;27.10;47.30;;;;;;5045524;28;20204;-69
2023/07/17 05:07:10;;;;;;;24.77;6.57;;;27.00;47.20;;;;;;5031366;28;20239;-71
2023/07/17 05:09:37;;;;;;;26.00;6.57;;;27.10;47.30;;;;;;5029642;28;20951;-72
2023/07/17 05:12:06;;;;;;;29.97;7.27;;;27.10;47.30;;;;;;5032277;28;20196;-69
2023/07/17 05:14:33;;;;;;;27.87;6.53;;;27.10;47.30;;;;;;5054833;28;20208;-69
2023/07/17 05:17:00;;;;;;;41.23;8.03;;;27.10;47.30;;;;;;5044885;28;20204;-68
2023/07/17 05:19:28;;;;;;;26.30;6.40;;;27.00;47.30;;;;;;5044455;28;20215;-72
2023/07/17 05:21:55;;;;;;;41.37;8.13;;;27.00;47.30;;;;;;5034019;28;20959;-68
2023/07/17 05:24:23;;;;;;;38.20;7.80;;;27.00;47.30;;;;;;5031400;28;20208;-76
2023/07/17 05:26:50;;;;;;;46.63;8.73;;;27.00;47.30;;;;;;5030617;28;20585;-68
2023/07/17 05:29:17;;;;;;;37.77;7.53;;;27.00;47.30;;;;;;5030415;28;20193;-67
2023/07/17 05:31:44;;;;;;;31.93;6.90;;;27.00;47.30;;;;;;5043203;28;20207;-71
2023/07/17 05:34:10;;;;;;;24.40;6.17;;;27.00;47.30;;;;;;5036854;28;20282;-75
2023/07/17 05:36:37;;;;;;;23.63;6.30;;;27.00;47.30;;;;;;5047232;28;20200;-70
2023/07/17 05:39:04;;;;;;;34.37;7.67;;;27.00;47.30;;;;;;5046687;28;20206;-69
2023/07/17 05:41:33;;;;;;;36.07;7.57;;;27.00;47.30;;;;;;5047498;28;20211;-75
2023/07/17 05:44:00;;;;;;;28.83;6.33;;;27.00;47.30;;;;;;5029238;28;20200;-73
2023/07/17 05:46:26;;;;;;;40.67;7.93;;;27.00;47.30;;;;;;5040431;28;20939;-70
2023/07/17 05:48:53;;;;;;;36.23;7.40;;;27.00;47.30;;;;;;5047187;28;20207;-70
2023/07/17 05:51:20;;;;;;;29.83;6.83;;;27.00;47.40;;;;;;5048190;28;20220;-70
2023/07/17 05:53:47;;;;;;;31.43;7.33;;;27.00;47.40;;;;;;5047224;28;20199;-68
2023/07/17 05:56:15;;;;;;;56.10;9.13;;;27.00;47.40;;;;;;5044781;28;20215;-70
2023/07/17 05:58:44;;;;;;;31.27;7.07;;;27.00;47.40;;;;;;5038827;28;20206;-70
2023/07/17 06:01:10;;;;;;;33.33;7.07;;;27.00;47.30;;;;;;5047624;28;20219;-71
2023/07/17 06:03:37;;;;;;;29.97;6.97;;;27.00;47.30;;;;;;5047352;28;20207;-71
2023/07/17 06:06:04;;;;;;;42.87;7.83;;;27.00;47.40;;;;;;5049069;28;20206;-68
2023/07/17 06:08:31;;;;;;;30.37;7.00;;;27.00;47.60;;;;;;5049072;28;20228;-68
2023/07/17 06:10:58;;;;;;;46.50;8.43;;;27.00;47.60;;;;;;5049898;28;20210;-67
2023/07/17 06:13:25;;;;;;;35.77;7.93;;;27.00;47.60;;;;;;5036121;28;20212;-68
2023/07/17 06:15:53;;;;;;;28.60;7.50;;;27.00;47.60;;;;;;5038504;28;20197;-67
2023/07/17 06:18:20;;;;;;;29.53;7.43;;;27.10;47.70;;;;;;5045080;28;20207;-68
2023/07/17 06:20:47;;;;;;;50.87;9.70;;;27.10;47.70;;;;;;5047262;28;20211;-69
2023/07/17 06:23:14;;;;;;;36.83;8.13;;;27.10;47.60;;;;;;5030890;28;20209;-68
2023/07/17 06:25:41;;;;;;;46.33;8.67;;;27.10;47.60;;;;;;5031077;28;20679;-70
2023/07/17 06:28:09;;;;;;;36.83;8.53;;;27.20;47.60;;;;;;5037677;28;20231;-69
2023/07/17 06:30:36;;;;;;;33.00;8.17;;;27.10;48.10;;;;;;5051685;28;20193;-70
2023/07/17 06:33:04;;;;;;;33.17;7.97;;;27.10;47.40;;;;;;5050368;28;20652;-69
2023/07/17 06:35:32;;;;;;;73.63;11.70;;;27.20;47.40;;;;;;5047564;28;20273;-68
2023/07/17 06:37:59;;;;;;;70.00;11.27;;;27.20;47.40;;;;;;5038870;28;20214;-71
2023/07/17 06:40:25;;;;;;;26.33;7.43;;;27.10;47.40;;;;;;5045360;28;20644;-71
2023/07/17 06:42:52;;;;;;;30.07;7.90;;;27.20;47.40;;;;;;5046021;28;20864;-68
2023/07/17 06:45:19;;;;;;;42.77;9.17;;;27.10;47.50;;;;;;5040758;28;20665;-71
2023/07/17 06:47:46;;;;;;;24.47;7.50;;;27.10;47.40;;;;;;5034432;28;20225;-77
2023/07/17 06:50:14;;;;;;;70.30;11.27;;;27.20;47.50;;;;;;5030970;28;20263;-69
2023/07/17 06:52:41;;;;;;;32.93;7.83;;;27.10;47.40;;;;;;5046511;28;20224;-69
2023/07/17 06:55:09;;;;;;;37.00;9.00;;;27.10;47.40;;;;;;5050229;28;20300;-74
2023/07/17 06:57:36;;;;;;;25.13;7.23;;;27.10;47.40;;;;;;5049391;28;20679;-67
2023/07/17 07:00:05;;;;;;;28.03;7.73;;;27.10;47.40;;;;;;5038766;28;20224;-68
2023/07/17 07:02:32;;;;;;;40.33;9.40;;;27.10;47.40;;;;;;5031186;28;20200;-71
2023/07/17 07:04:59;;;;;;;23.73;7.63;;;27.10;47.40;;;;;;5034089;28;20220;-68
2023/07/17 07:07:27;;;;;;;32.87;8.13;;;27.10;47.50;;;;;;5048164;28;20256;-68
2023/07/17 07:09:54;;;;;;;69.00;11.50;;;27.10;47.50;;;;;;5046806;28;20204;-67
2023/07/17 07:12:21;;;;;;;99.17;14.00;;;27.10;47.50;;;;;;5036395;28;20208;-67
2023/07/17 07:14:48;;;;;;;35.13;8.43;;;27.10;47.50;;;;;;5034872;28;20207;-73
2023/07/17 07:17:15;;;;;;;33.87;8.60;;;27.10;47.50;;;;;;5041132;28;20204;-78
2023/07/17 07:19:42;;;;;;;38.23;8.10;;;27.10;47.50;;;;;;5031245;28;20197;-67
2023/07/17 07:22:09;;;;;;;29.87;8.20;;;27.00;47.40;;;;;;5045895;28;20218;-72
2023/07/17 07:24:41;;;;;;;46.70;9.77;;;27.00;47.50;;;;;;5042172;28;20247;-72
2023/07/17 07:27:08;;;;;;;35.93;8.37;;;27.00;47.70;;;;;;5050271;28;20731;-73
2023/07/17 07:29:35;;;;;;;31.30;8.70;;;27.10;47.70;;;;;;5040669;28;20208;-74
2023/07/17 07:32:02;;;;;;;29.80;7.70;;;27.00;47.80;;;;;;5033065;28;20204;-65
2023/07/17 07:34:28;;;;;;;38.87;9.30;;;27.00;47.70;;;;;;5033064;28;20267;-66
2023/07/17 07:36:55;;;;;;;35.07;9.10;;;27.00;47.80;;;;;;5033350;28;20217;-68
2023/07/17 07:39:22;;;;;;;33.97;8.17;;;27.00;47.70;;;;;;5035091;28;20219;-66
2023/07/17 07:41:50;;;;;;;32.20;8.27;;;27.00;47.60;;;;;;5029995;28;20197;-65
2023/07/17 07:44:17;;;;;;;38.07;8.57;;;27.00;47.70;;;;;;5029356;28;20642;-66
2023/07/17 07:46:44;;;;;;;27.73;7.37;;;27.00;47.70;;;;;;5029653;28;20209;-67
2023/07/17 07:49:11;;;;;;;31.23;7.70;;;27.00;47.80;;;;;;5035419;28;20228;-66
2023/07/17 07:51:38;;;;;;;34.17;8.00;;;27.00;47.80;;;;;;5041845;28;20228;-66
2023/07/17 07:54:05;;;;;;;31.47;8.37;;;27.00;47.80;;;;;;5030665;28;20216;-66
2023/07/17 07:56:32;;;;;;;28.63;7.23;;;27.00;47.80;;;;;;5042504;28;20210;-69
2023/07/17 07:59:00;;;;;;;31.70;7.73;;;27.00;47.80;;;;;;5049244;28;20200;-67
2023/07/17 08:01:27;;;;;;;39.77;8.47;;;27.00;47.80;;;;;;5049273;28;20232;-69
2023/07/17 08:03:54;;;;;;;29.23;7.77;;;27.00;47.80;;;;;;5042101;28;20212;-69
2023/07/17 08:06:21;;;;;;;37.30;8.50;;;27.00;47.90;;;;;;5028965;28;20197;-71
2023/07/17 08:08:47;;;;;;;28.43;7.40;;;27.00;47.90;;;;;;5029123;28;20228;-67
2023/07/17 08:11:14;;;;;;;28.43;7.50;;;27.00;47.90;;;;;;5036365;28;20569;-72
2023/07/17 08:13:41;;;;;;;29.93;7.67;;;27.10;47.90;;;;;;5038024;28;20211;-67
2023/07/17 08:16:09;;;;;;;28.87;7.40;;;27.10;47.90;;;;;;5040451;28;20204;-69
2023/07/17 08:18:36;;;;;;;41.73;9.03;;;27.10;47.90;;;;;;5030792;28;20565;-75
2023/07/17 08:21:03;;;;;;;27.20;7.53;;;27.10;47.90;;;;;;5033029;28;20200;-67
2023/07/17 08:23:31;;;;;;;34.17;7.90;;;27.10;47.90;;;;;;5038918;28;20231;-71
2023/07/17 08:25:58;;;;;;;34.47;8.00;;;27.10;47.90;;;;;;5040473;28;20624;-73
2023/07/17 08:28:25;;;;;;;34.67;7.73;;;27.20;48.00;;;;;;5029403;28;20232;-70
2023/07/17 08:30:53;;;;;;;33.00;7.47;;;27.20;48.00;;;;;;5042249;28;20200;-65
2023/07/17 08:33:21;;;;;;;30.30;7.77;;;27.20;48.00;;;;;;5040893;28;20703;-72
2023/07/17 08:35:48;;;;;;;40.07;8.53;;;27.20;48.10;;;;;;5043996;28;20573;-72
2023/07/17 08:38:15;;;;;;;30.90;7.57;;;27.20;48.10;;;;;;5045505;28;20212;-71
2023/07/17 08:40:42;;;;;;;34.10;8.77;;;27.30;48.20;;;;;;5045463;28;20200;-70
2023/07/17 08:43:09;;;;;;;30.77;7.70;;;27.30;48.30;;;;;;5047360;28;20199;-71
2023/07/17 08:45:37;;;;;;;63.40;10.40;;;27.30;48.30;;;;;;5044142;28;20679;-71
2023/07/17 08:48:06;;;;;;;27.13;7.10;;;27.40;48.50;;;;;;5042086;28;20727;-70
2023/07/17 08:50:36;;;;;;;37.70;8.60;;;27.40;48.50;;;;;;5031954;28;20245;-65
2023/07/17 08:53:04;;;;;;;32.40;7.60;;;27.50;48.60;;;;;;5047493;28;20196;-66
2023/07/17 08:55:32;;;;;;;27.90;7.67;;;27.40;48.60;;;;;;5039147;28;20193;-71
2023/07/17 08:58:03;;;;;;;25.50;7.40;;;27.50;48.60;;;;;;5033893;28;20197;-70
2023/07/17 09:00:31;;;;;;;42.37;8.73;;;27.60;48.80;;;;;;5049427;28;20661;-70
2023/07/17 09:02:58;;;;;;;33.03;8.40;;;27.70;48.80;;;;;;5040782;28;20227;-76
2023/07/17 09:05:25;;;;;;;27.50;7.63;;;27.70;48.80;;;;;;5055461;28;20572;-72
2023/07/17 09:07:53;;;;;;;48.27;9.53;;;27.80;48.80;;;;;;5040404;28;20223;-69
2023/07/17 09:10:22;;;;;;;28.13;7.27;;;27.80;48.80;;;;;;5040751;28;20203;-72
2023/07/17 09:12:52;;;;;;;33.90;7.97;;;27.80;48.80;;;;;;5043387;28;20550;-82
2023/07/17 09:15:19;;;;;;;29.50;7.40;;;27.90;48.80;;;;;;5034688;28;20279;-70
2023/07/17 09:17:47;;;;;;;30.67;8.00;;;28.00;48.80;;;;;;5034230;28;20273;-82
2023/07/17 09:20:16;;;;;;;23.50;7.03;;;28.00;48.80;;;;;;5046277;28;20671;-69
2023/07/17 09:22:43;;;;;;;28.20;6.90;;;28.10;48.80;;;;;;5040529;28;20205;-72
2023/07/17 09:25:12;;;;;;;24.93;6.90;;;28.20;48.80;;;;;;5037507;28;20204;-72
2023/07/17 09:27:46;;;;;;;27.03;7.33;;;28.20;48.80;;;;;;5031950;28;20197;-73
2023/07/17 09:30:15;;;;;;;31.40;7.53;;;28.30;48.90;;;;;;5043727;28;20676;-70
2023/07/17 09:32:43;;;;;;;64.37;11.03;;;28.30;48.80;;;;;;5028346;28;20200;-73
2023/07/17 09:35:12;;;;;;;35.83;8.23;;;28.30;48.70;;;;;;5034372;28;20208;-72
2023/07/17 09:37:42;;;;;;;22.33;6.97;;;28.40;48.80;;;;;;5029349;28;20217;-68
2023/07/17 09:40:11;;;;;;;45.13;9.13;;;28.40;48.70;;;;;;5035835;28;20216;-68
2023/07/17 09:42:39;;;;;;;27.20;7.37;;;28.40;48.60;;;;;;5047529;28;20208;-72
2023/07/17 09:45:07;;;;;;;33.20;7.90;;;28.50;48.50;;;;;;5037222;28;20204;-80
2023/07/17 09:47:35;;;;;;;30.67;7.20;;;28.50;48.40;;;;;;5034593;28;20201;-72
2023/07/17 09:50:03;;;;;;;31.17;7.87;;;28.60;48.40;;;;;;5045385;28;20710;-69
2023/07/17 09:52:30;;;;;;;33.50;7.70;;;28.60;48.30;;;;;;5035897;28;20243;-69
2023/07/17 09:55:00;;;;;;;28.10;6.80;;;28.60;48.40;;;;;;5037935;28;20200;-74
2023/07/17 09:57:30;;;;;;;31.27;7.40;;;28.70;48.40;;;;;;5034521;28;20251;-77
2023/07/17 09:59:59;;;;;;;34.23;7.77;;;28.70;48.30;;;;;;5032663;28;20207;-66
2023/07/17 10:02:31;;;;;;;28.30;7.40;;;28.70;48.20;;;;;;5029908;28;20283;-74
2023/07/17 10:05:00;;;;;;;37.10;7.80;;;28.70;48.10;;;;;;5027743;28;20197;-69
2023/07/17 10:07:29;;;;;;;31.17;7.00;;;28.70;48.10;;;;;;5029316;28;20201;-76
2023/07/17 10:09:59;;;;;;;36.07;7.93;;;28.70;48.60;;;;;;5036880;28;20215;-72
2023/07/17 10:12:27;;;;;;;19.07;6.23;;;28.70;48.00;;;;;;5029149;28;20241;-74
2023/07/17 10:14:56;;;;;;;30.03;7.23;;;28.70;47.90;;;;;;5031157;28;20211;-70
2023/07/17 10:17:30;;;;;;;33.03;7.57;;;28.70;47.90;;;;;;5032150;28;20683;-70
2023/07/17 10:19:59;;;;;;;21.77;6.47;;;28.70;48.50;;;;;;5043162;28;20212;-73
2023/07/17 10:22:33;;;;;;;36.10;7.73;;;28.70;47.90;;;;;;5030829;28;20215;-76
2023/07/17 10:25:09;;;;;;;31.53;7.53;;;28.70;47.90;;;;;;5042701;28;20208;-72
2023/07/17 10:27:42;;;;;;;55.30;9.60;;;28.70;47.80;;;;;;5035909;28;20192;-73
2023/07/17 10:30:26;;;;;;;29.53;7.37;;;28.70;47.80;;;;;;5041368;28;20710;-69
2023/07/17 10:33:09;;;;;;;39.03;8.13;;;28.70;47.90;;;;;;5040704;28;20209;-70
2023/07/17 10:35:50;;;;;;;39.43;8.07;;;28.70;48.00;;;;;;5034831;28;20206;-71
2023/07/17 10:38:19;;;;;;;43.63;8.27;;;28.70;48.00;;;;;;5043241;28;20219;-69
2023/07/17 10:40:46;;;;;;;48.10;8.63;;;28.70;48.00;;;;;;5044654;28;20744;-68
2023/07/17 10:43:20;;;;;;;35.10;8.53;;;28.70;48.00;;;;;;5045952;28;20208;-71
2023/07/17 10:45:48;;;;;;;39.53;8.17;;;28.70;48.00;;;;;;5033209;28;20207;-75
2023/07/17 10:48:17;;;;;;;34.37;7.60;;;28.70;48.00;;;;;;5040831;28;20211;-69
2023/07/17 10:50:52;;;;;;;50.80;9.23;;;28.80;48.00;;;;;;5043068;28;20220;-81
2023/07/17 10:53:19;;;;;;;36.60;8.23;;;28.70;47.90;;;;;;5028624;28;20335;-74
2023/07/17 10:55:47;;;;;;;34.00;7.33;;;28.80;47.90;;;;;;5030655;28;20251;-81
2023/07/17 10:58:14;;;;;;;40.73;8.60;;;28.80;47.90;;;;;;5030932;28;20201;-69
2023/07/17 11:00:43;;;;;;;38.40;8.23;;;28.70;47.80;;;;;;5034827;28;20228;-81
2023/07/17 11:03:10;;;;;;;37.27;7.57;;;28.70;47.80;;;;;;5048412;28;20207;-75
2023/07/17 11:05:38;;;;;;;33.20;7.07;;;28.80;47.80;;;;;;5050399;28;20200;-76
2023/07/17 11:08:06;;;;;;;40.10;7.60;;;28.80;47.90;;;;;;5049508;28;20204;-76
2023/07/17 11:10:33;;;;;;;34.07;7.63;;;28.70;47.90;;;;;;5036494;28;20467;-72
2023/07/17 11:13:03;;;;;;;36.03;8.03;;;28.70;47.90;;;;;;5035434;28;20203;-71
2023/07/17 11:15:32;;;;;;;34.03;7.27;;;28.70;48.00;;;;;;5032711;28;20658;-69
2023/07/17 11:18:01;;;;;;;29.73;7.03;;;28.80;48.00;;;;;;5038998;28;20575;-74
2023/07/17 11:20:28;;;;;;;33.77;7.60;;;28.80;48.00;;;;;;5049067;28;20200;-70
2023/07/17 11:22:55;;;;;;;41.63;8.43;;;28.80;48.00;;;;;;5048978;28;20291;-80
2023/07/17 11:25:23;;;;;;;33.13;7.23;;;28.80;48.00;;;;;;5050163;28;20200;-81
2023/07/17 11:27:50;;;;;;;39.00;7.73;;;28.80;48.00;;;;;;5034437;28;20288;-74
2023/07/17 11:30:19;;;;;;;32.63;7.07;;;28.80;48.00;;;;;;5049087;28;20221;-69
2023/07/17 11:32:51;;;;;;;31.33;7.03;;;28.80;48.00;;;;;;5044243;28;20205;-69
2023/07/17 11:35:20;;;;;;;34.70;7.60;;;28.80;48.00;;;;;;5038444;28;20201;-69
2023/07/17 11:37:47;;;;;;;36.07;7.47;;;28.80;47.90;;;;;;5044938;28;20216;-69
2023/07/17 11:40:14;;;;;;;27.83;6.63;;;28.80;47.90;;;;;;5031737;28;20649;-74
2023/07/17 11:42:55;;;;;;;36.97;7.40;;;28.80;47.90;;;;;;5029636;28;20189;-68
2023/07/17 11:45:24;;;;;;;33.83;7.30;;;28.80;47.80;;;;;;5029465;28;20587;-69
2023/07/17 11:47:53;;;;;;;25.47;7.03;;;28.80;47.70;;;;;;5029263;28;20209;-68
2023/07/17 11:50:22;;;;;;;44.40;8.30;;;28.80;47.70;;;;;;5028928;28;20285;-69
2023/07/17 11:52:48;;;;;;;25.63;6.33;;;28.80;47.70;;;;;;5029486;28;20216;-69
2023/07/17 11:55:21;;;;;;;25.73;6.83;;;28.80;47.80;;;;;;5048636;28;20212;-69
2023/07/17 11:57:51;;;;;;;31.53;6.70;;;28.70;47.70;;;;;;5043832;28;20205;-73
2023/07/17 12:00:19;;;;;;;32.60;6.80;;;28.70;47.70;;;;;;5029504;28;20197;-68
2023/07/17 12:02:47;;;;;;;28.40;6.57;;;28.70;47.70;;;;;;5029432;28;20197;-68
2023/07/17 12:05:14;;;;;;;56.90;9.33;;;28.70;47.70;;;;;;5027287;28;20209;-71
2023/07/17 12:07:42;;;;;;;41.30;7.83;;;28.70;47.80;;;;;;5061179;28;20229;-68
2023/07/17 12:10:10;;;;;;;30.67;6.67;;;28.60;47.90;;;;;;5069168;28;20257;-69
2023/07/17 12:12:37;;;;;;;26.17;6.70;;;28.60;48.00;;;;;;5057178;28;20204;-68
2023/07/17 12:15:06;;;;;;;37.70;7.43;;;28.70;48.30;;;;;;5047559;28;20200;-69
2023/07/17 12:17:33;;;;;;;24.47;6.23;;;28.70;48.40;;;;;;5046755;28;20658;-71
2023/07/17 12:20:00;;;;;;;34.13;7.80;;;28.70;48.70;;;;;;5046938;28;20201;-71
2023/07/17 12:22:27;;;;;;;27.27;6.43;;;28.80;49.00;;;;;;5048077;28;20656;-69
2023/07/17 12:24:56;;;;;;;23.43;6.20;;;29.00;49.20;;;;;;5047432;28;20656;-73
2023/07/17 12:27:23;;;;;;;52.97;8.83;;;29.10;49.30;;;;;;5032098;28;20209;-75
2023/07/17 12:29:50;;;;;;;27.87;6.80;;;29.20;49.20;;;;;;5065325;28;20233;-76
2023/07/17 12:32:17;;;;;;;28.80;7.07;;;29.40;48.90;;;;;;5052852;28;20568;-71
2023/07/17 12:34:43;;;;;;;24.17;6.40;;;29.50;48.90;;;;;;5037041;28;20211;-76
2023/07/17 12:37:10;;;;;;;26.10;6.83;;;29.60;48.70;;;;;;5041280;28;20212;-71
2023/07/17 12:39:37;;;;;;;32.37;7.03;;;29.70;48.50;;;;;;5048838;28;20215;-71